Time;durP1;ratioP1;P1;durP2;ratioP2;P2;SDS_P1;SDS_P2;PMS_P1;PMS_P2;Temp;Humidity;BMP_temperature;BMP_pressure;BME280_temperature;BME280_humidity;BME280_pressure;Samples;Min_cycle;Max_cycle;Signal;HPM_P1;HPM_P2
2022/07/21 00:01:11;;;;;;;9.88;8.80;;;;;;;23.86;56.13;101658.00;6246637;23;20004;-64
2022/07/21 00:03:37;;;;;;;9.68;8.77;;;;;;;23.77;56.29;101650.25;6246813;23;20325;-63
2022/07/21 00:06:03;;;;;;;9.60;8.60;;;;;;;23.71;56.46;101651.56;6245000;23;20012;-63
2022/07/21 00:08:28;;;;;;;11.02;8.18;;;;;;;23.93;55.65;101653.56;6247466;23;20020;-63
2022/07/21 00:10:54;;;;;;;9.30;8.32;;;;;;;23.88;56.18;101662.19;6246281;23;20484;-63
2022/07/21 00:13:19;;;;;;;9.40;8.52;;;;;;;23.81;56.27;101658.13;6248687;23;20075;-63
2022/07/21 00:15:45;;;;;;;10.93;8.43;;;;;;;23.83;56.25;101658.66;6247326;23;20004;-63
2022/07/21 00:18:10;;;;;;;9.55;8.57;;;;;;;23.75;56.20;101654.59;6246258;23;20044;-63
2022/07/21 00:20:35;;;;;;;9.80;8.30;;;;;;;23.86;55.51;101646.66;6244959;23;20067;-63
2022/07/21 00:23:01;;;;;;;9.60;8.60;;;;;;;23.73;55.91;101651.22;6246159;23;20012;-63
2022/07/21 00:25:26;;;;;;;12.48;9.10;;;;;;;23.61;56.70;101657.44;6245743;23;20071;-63
2022/07/21 00:27:52;;;;;;;10.90;8.73;;;;;;;23.54;56.41;101657.09;6247708;23;20008;-63
2022/07/21 00:30:17;;;;;;;9.45;8.65;;;;;;;23.60;56.40;101660.63;6247271;23;20073;-63
2022/07/21 00:32:43;;;;;;;9.20;8.30;;;;;;;23.53;56.65;101652.56;6245872;23;20486;-63
2022/07/21 00:35:09;;;;;;;10.73;8.88;;;;;;;23.56;56.49;101654.75;6247328;23;20011;-63
2022/07/21 00:37:35;;;;;;;9.57;8.57;;;;;;;23.60;56.54;101654.94;6246691;23;20004;-64
2022/07/21 00:40:01;;;;;;;11.02;8.95;;;;;;;23.53;56.48;101656.22;6246807;23;20066;-63
2022/07/21 00:42:29;;;;;;;11.20;9.63;;;;;;;23.42;57.23;101657.66;6244077;23;20008;-63
2022/07/21 00:44:55;;;;;;;10.55;8.77;;;;;;;23.40;56.96;101659.13;6245616;23;20000;-63
2022/07/21 00:47:22;;;;;;;8.93;7.93;;;;;;;23.60;56.40;101664.28;6247686;23;20447;-63
2022/07/21 00:49:49;;;;;;;10.93;9.40;;;;;;;23.40;56.84;101647.78;6246394;23;20066;-63
2022/07/21 00:52:14;;;;;;;12.25;8.80;;;;;;;23.55;56.36;101657.94;6245717;23;20004;-63
2022/07/21 00:54:40;;;;;;;10.57;9.13;;;;;;;23.41;57.16;101658.81;6247234;23;20026;-63
2022/07/21 00:57:06;;;;;;;10.57;9.52;;;;;;;23.28;57.20;101654.88;6247605;23;20007;-63
2022/07/21 00:59:31;;;;;;;10.60;8.23;;;;;;;23.45;57.07;101657.00;6245297;23;20427;-63
2022/07/21 01:01:57;;;;;;;9.93;8.63;;;;;;;23.32;57.11;101648.56;6246105;23;20083;-63
2022/07/21 01:04:22;;;;;;;10.48;8.85;;;;;;;23.31;57.25;101644.06;6246939;23;20004;-63
2022/07/21 01:06:48;;;;;;;9.73;8.73;;;;;;;23.35;57.18;101642.25;6246433;23;20001;-64
2022/07/21 01:09:14;;;;;;;10.52;9.43;;;;;;;23.30;57.45;101639.53;6246894;23;20000;-63
2022/07/21 01:11:40;;;;;;;9.23;8.27;;;;;;;23.46;57.00;101632.34;6247818;23;20408;-64
2022/07/21 01:14:05;;;;;;;10.25;9.10;;;;;;;23.28;57.24;101623.72;6244161;23;20043;-63
2022/07/21 01:16:31;;;;;;;10.20;9.10;;;;;;;23.35;57.29;101620.44;6247344;23;20008;-63
2022/07/21 01:18:56;;;;;;;10.25;9.25;;;;;;;23.31;57.46;101625.06;6247191;23;20440;-63
2022/07/21 01:21:36;;;;;;;10.38;9.10;;;;;;;23.23;57.34;101629.50;6246257;23;20297;-64
2022/07/21 01:24:03;;;;;;;11.70;10.10;;;;;;;23.17;57.77;101625.09;6247211;23;20008;-64
2022/07/21 01:26:29;;;;;;;10.52;9.50;;;;;;;23.25;57.64;101632.00;6245470;23;20310;-63
2022/07/21 01:28:56;;;;;;;11.77;10.65;;;;;;;23.08;57.96;101623.38;6245179;23;20058;-63
2022/07/21 01:31:21;;;;;;;12.35;11.15;;;;;;;22.95;58.27;101617.44;6245422;23;20072;-63
2022/07/21 01:33:46;;;;;;;11.93;10.73;;;;;;;22.93;58.34;101624.56;6247107;23;20004;-63
2022/07/21 01:36:12;;;;;;;11.52;9.25;;;;;;;23.09;58.11;101631.53;6244914;23;20078;-63
2022/07/21 01:41:31;;;;;;;9.55;8.55;;;;;;;23.12;57.82;101630.91;6245926;23;20023;-64
2022/07/21 01:44:00;;;;;;;12.18;10.07;;;;;;;22.95;58.63;101620.25;6246286;23;20020;-64
2022/07/21 01:46:26;;;;;;;11.82;10.35;;;;;;;22.84;58.84;101626.44;6247153;23;20004;-64
2022/07/21 01:48:51;;;;;;;12.40;11.13;;;;;;;22.77;59.18;101630.53;6244680;23;20348;-63
2022/07/21 01:51:16;;;;;;;9.13;8.23;;;;;;;23.06;58.31;101626.50;6246269;23;20076;-64
2022/07/21 01:53:42;;;;;;;12.15;10.70;;;;;;;22.84;59.14;101637.75;6246859;23;20367;-64
2022/07/21 01:56:07;;;;;;;14.75;11.55;;;;;;;22.77;59.17;101624.88;6244758;23;20034;-63
2022/07/21 01:58:33;;;;;;;11.63;10.43;;;;;;;22.89;58.63;101631.97;6245884;23;20011;-63
2022/07/21 02:00:59;;;;;;;11.20;10.10;;;;;;;22.91;58.85;101626.84;6246094;23;20436;-63
2022/07/21 02:03:24;;;;;;;10.27;9.27;;;;;;;22.97;58.52;101626.44;6245510;23;20015;-64
2022/07/21 02:05:50;;;;;;;10.82;9.65;;;;;;;22.98;58.42;101618.75;6246156;23;20003;-63
2022/07/21 02:08:15;;;;;;;11.48;10.35;;;;;;;22.93;58.38;101616.91;6245950;23;20428;-63
2022/07/21 02:10:40;;;;;;;12.15;10.93;;;;;;;22.91;58.75;101621.19;6243645;23;20092;-63
2022/07/21 02:13:06;;;;;;;13.40;11.23;;;;;;;22.96;58.59;101623.94;6246978;23;20050;-63
2022/07/21 02:15:31;;;;;;;12.07;10.55;;;;;;;22.83;59.24;101634.06;6246850;23;20074;-64
2022/07/21 02:17:57;;;;;;;12.38;10.82;;;;;;;22.89;58.93;101631.97;6244783;23;20019;-63
2022/07/21 02:20:23;;;;;;;12.05;10.85;;;;;;;22.90;58.80;101616.66;6245509;23;20008;-64
2022/07/21 02:22:49;;;;;;;10.40;9.25;;;;;;;23.00;58.53;101619.28;6246466;23;20032;-64
2022/07/21 02:25:14;;;;;;;11.57;10.48;;;;;;;23.00;58.40;101619.28;6244524;23;20331;-63
2022/07/21 02:27:41;;;;;;;14.23;12.00;;;;;;;22.83;59.20;101621.91;6244796;23;20040;-63
2022/07/21 02:30:07;;;;;;;14.63;11.95;;;;;;;22.79;59.32;101610.38;6245601;23;20417;-64
2022/07/21 02:32:32;;;;;;;13.75;11.32;;;;;;;22.89;58.80;101610.16;6243551;23;20004;-62
2022/07/21 02:34:57;;;;;;;9.18;8.18;;;;;;;22.97;58.61;101612.28;6244434;23;20408;-62
2022/07/21 02:37:23;;;;;;;13.15;11.85;;;;;;;22.93;58.92;101616.06;6244797;23;19997;-63
2022/07/21 02:39:49;;;;;;;11.23;8.52;;;;;;;23.03;58.37;101615.84;6243866;23;19996;-63
2022/07/21 02:42:14;;;;;;;13.15;11.80;;;;;;;22.91;58.89;101612.69;6245120;23;20015;-63
2022/07/21 02:44:39;;;;;;;13.95;12.00;;;;;;;22.75;59.39;101607.38;6245484;23;20004;-63
2022/07/21 02:47:05;;;;;;;9.82;8.82;;;;;;;22.93;58.59;101607.56;6244898;23;20027;-63
2022/07/21 02:49:31;;;;;;;12.80;11.50;;;;;;;22.84;59.20;101603.78;6246051;23;20023;-64
2022/07/21 02:51:56;;;;;;;13.15;11.77;;;;;;;22.92;58.86;101605.91;6242925;23;20043;-64
2022/07/21 02:54:21;;;;;;;12.80;10.68;;;;;;;22.91;58.89;101605.06;6244670;23;20078;-64
2022/07/21 02:56:47;;;;;;;13.93;10.63;;;;;;;22.98;58.93;101610.28;6245353;23;20079;-64
2022/07/21 02:59:12;;;;;;;14.02;11.75;;;;;;;22.89;58.95;101610.16;6244328;23;20026;-65
2022/07/21 03:01:37;;;;;;;14.35;12.90;;;;;;;22.81;59.34;101610.91;6246581;23;20004;-65
2022/07/21 03:04:03;;;;;;;14.70;13.20;;;;;;;22.71;59.79;101611.13;6244532;23;20004;-65
2022/07/21 03:06:28;;;;;;;13.63;12.23;;;;;;;22.71;59.48;101606.31;6244243;23;20008;-65
2022/07/21 03:08:53;;;;;;;15.25;13.75;;;;;;;22.61;59.79;101609.38;6245244;23;20031;-66
2022/07/21 03:11:19;;;;;;;15.77;13.68;;;;;;;22.56;59.78;101606.66;6246845;23;20008;-65
2022/07/21 03:13:44;;;;;;;16.05;13.70;;;;;;;22.49;60.85;101607.09;6245247;23;20000;-65
2022/07/21 03:16:09;;;;;;;15.52;13.82;;;;;;;22.48;60.11;101599.75;6245233;23;20443;-65
2022/07/21 03:18:35;;;;;;;16.67;13.90;;;;;;;22.53;60.01;101595.97;6245300;23;20062;-65
2022/07/21 03:21:00;;;;;;;16.10;13.90;;;;;;;22.43;60.38;101599.84;6244426;23;20008;-65
2022/07/21 03:23:25;;;;;;;16.58;13.75;;;;;;;22.40;60.60;101593.97;6246133;23;20008;-65
2022/07/21 03:25:51;;;;;;;15.88;14.20;;;;;;;22.35;60.74;101599.75;6245063;23;20011;-65
2022/07/21 03:28:17;;;;;;;16.17;14.57;;;;;;;22.28;61.02;101603.00;6244891;23;20000;-65
2022/07/21 03:30:42;;;;;;;14.23;12.63;;;;;;;22.39;60.51;101604.47;6244929;23;20071;-64
2022/07/21 03:33:08;;;;;;;16.25;14.32;;;;;;;22.27;60.84;101604.16;6246292;23;20317;-65
2022/07/21 03:35:35;;;;;;;17.30;14.93;;;;;;;22.22;60.96;101607.94;6244933;23;20087;-65
2022/07/21 03:38:01;;;;;;;15.93;14.25;;;;;;;22.22;61.02;101604.25;6246618;23;20011;-65
2022/07/21 03:40:29;;;;;;;14.63;12.88;;;;;;;22.32;60.71;101606.88;6245439;23;20083;-65
2022/07/21 03:42:57;;;;;;;14.52;13.13;;;;;;;22.34;60.61;101609.41;6245660;23;20332;-65
2022/07/21 03:45:23;;;;;;;15.95;13.55;;;;;;;22.30;60.69;101606.34;6245864;23;20008;-65
2022/07/21 03:47:49;;;;;;;15.68;13.57;;;;;;;22.24;60.93;101616.94;6245266;23;20004;-65
2022/07/21 03:50:17;;;;;;;15.27;13.50;;;;;;;22.27;60.73;101606.97;6246174;23;20019;-65
2022/07/21 03:52:42;;;;;;;15.43;13.23;;;;;;;22.15;61.19;101610.31;6246735;23;20000;-65
2022/07/21 03:55:08;;;;;;;15.57;13.35;;;;;;;22.25;60.79;101620.63;6245142;23;20043;-65
2022/07/21 03:57:38;;;;;;;16.90;13.43;;;;;;;22.28;60.80;101614.31;6246077;23;20004;-65
2022/07/21 04:00:09;;;;;;;16.50;13.43;;;;;;;22.24;60.67;101622.59;6246448;23;20083;-65
2022/07/21 04:02:35;;;;;;;14.35;12.52;;;;;;;22.19;61.09;101625.50;6244296;23;20004;-65
2022/07/21 04:05:00;;;;;;;17.05;12.18;;;;;;;22.27;60.56;101624.78;6246224;23;20424;-65
2022/07/21 04:07:26;;;;;;;16.70;12.27;;;;;;;22.22;60.88;101632.53;6246036;23;20000;-65
2022/07/21 04:09:51;;;;;;;18.77;13.13;;;;;;;22.17;60.94;101638.31;6244664;23;20014;-65
2022/07/21 04:12:16;;;;;;;13.93;12.43;;;;;;;22.22;60.74;101641.84;6245009;23;20039;-65
2022/07/21 04:14:41;;;;;;;14.68;11.88;;;;;;;22.24;60.55;101636.75;6246265;23;20007;-65
2022/07/21 04:17:07;;;;;;;13.30;11.63;;;;;;;22.21;60.58;101637.38;6245168;23;20007;-65
2022/07/21 04:19:32;;;;;;;16.15;12.07;;;;;;;22.19;60.65;101631.16;6246101;23;20000;-65
2022/07/21 04:21:57;;;;;;;17.45;12.18;;;;;;;22.21;61.14;101628.03;6246335;23;20000;-65
2022/07/21 04:24:23;;;;;;;23.33;12.82;;;;;;;22.16;62.43;101628.13;6245464;23;20008;-65
2022/07/21 04:26:48;;;;;;;16.48;12.90;;;;;;;22.15;63.10;101623.63;6246268;23;20396;-64
2022/07/21 04:29:16;;;;;;;17.15;12.25;;;;;;;22.11;63.03;101617.72;6245772;23;20001;-64
2022/07/21 04:31:41;;;;;;;14.57;12.13;;;;;;;22.10;62.82;101618.06;6245375;23;20027;-64
2022/07/21 04:34:06;;;;;;;15.25;12.13;;;;;;;22.18;62.59;101623.00;6245853;23;20087;-65
2022/07/21 04:36:32;;;;;;;12.40;11.10;;;;;;;22.14;62.54;101619.13;6246321;23;20001;-64
2022/07/21 04:38:57;;;;;;;14.82;12.68;;;;;;;22.19;62.57;101616.19;6245137;23;20529;-65
2022/07/21 04:41:22;;;;;;;17.38;12.00;;;;;;;22.08;63.47;101621.16;6245732;23;20012;-65
2022/07/21 04:43:47;;;;;;;15.00;12.50;;;;;;;21.96;63.21;101618.84;6245741;23;20336;-65
2022/07/21 04:46:13;;;;;;;13.48;12.07;;;;;;;21.96;63.28;101616.03;6246241;23;20031;-64
2022/07/21 04:48:39;;;;;;;15.25;12.60;;;;;;;21.97;63.80;101619.72;6247751;23;20444;-65
2022/07/21 04:51:07;;;;;;;13.90;12.15;;;;;;;21.99;63.19;101617.41;6246655;23;20354;-65
2022/07/21 04:53:32;;;;;;;14.07;12.45;;;;;;;21.91;63.80;101620.94;6248196;23;20008;-65
2022/07/21 04:55:57;;;;;;;16.98;12.77;;;;;;;21.95;63.85;101630.47;6247573;23;20043;-65
2022/07/21 04:58:23;;;;;;;14.93;12.60;;;;;;;21.84;64.17;101627.00;6246743;23;20008;-65
2022/07/21 05:00:51;;;;;;;16.40;12.73;;;;;;;21.74;63.97;101628.03;6248090;23;20008;-64
2022/07/21 05:03:16;;;;;;;14.32;12.02;;;;;;;21.79;64.50;101625.09;6247954;23;20020;-64
2022/07/21 05:05:42;;;;;;;15.23;12.65;;;;;;;21.80;64.32;101628.78;6247041;23;20327;-64
2022/07/21 05:08:07;;;;;;;14.18;12.20;;;;;;;21.79;64.47;101625.09;6247872;23;19996;-65
2022/07/21 05:10:38;;;;;;;14.07;11.43;;;;;;;21.87;64.17;101625.53;6247393;23;20011;-64
2022/07/21 05:13:04;;;;;;;13.93;12.43;;;;;;;21.80;64.10;101625.94;6246175;23;20051;-64
2022/07/21 05:15:29;;;;;;;16.00;12.40;;;;;;;21.75;64.49;101629.69;6247730;23;20000;-64
2022/07/21 05:17:54;;;;;;;14.65;11.35;;;;;;;21.74;64.16;101622.38;6247786;23;20011;-64
2022/07/21 05:20:19;;;;;;;14.93;11.93;;;;;;;21.78;63.99;101623.44;6246681;23;20487;-64
2022/07/21 05:22:45;;;;;;;12.82;11.02;;;;;;;21.83;63.57;101621.66;6247768;23;20008;-64
2022/07/21 05:25:10;;;;;;;14.50;10.57;;;;;;;21.82;63.69;101626.50;6247052;23;20108;-64
2022/07/21 05:27:36;;;;;;;13.60;10.27;;;;;;;21.84;63.78;101620.50;6245559;23;20000;-64
2022/07/21 05:30:02;;;;;;;15.45;10.93;;;;;;;21.84;63.99;101618.53;6247088;23;20015;-63
2022/07/21 05:32:27;;;;;;;13.85;10.05;;;;;;;21.90;63.55;101616.47;6247009;23;20380;-63
2022/07/21 05:34:52;;;;;;;14.02;11.00;;;;;;;21.87;63.65;101623.56;6245412;23;20004;-63
2022/07/21 05:37:18;;;;;;;12.90;10.40;;;;;;;21.87;63.23;101619.91;6246360;23;20004;-64
2022/07/21 05:39:43;;;;;;;13.00;10.35;;;;;;;21.87;63.55;101622.72;6247649;23;20039;-64
2022/07/21 05:42:08;;;;;;;14.23;10.57;;;;;;;21.79;63.18;101616.63;6243471;23;20058;-65
2022/07/21 05:44:33;;;;;;;11.88;10.27;;;;;;;21.87;63.34;101617.91;6247018;23;20365;-65
2022/07/21 05:46:59;;;;;;;16.65;10.85;;;;;;;21.87;63.63;101617.06;6246156;23;20004;-64
2022/07/21 05:49:24;;;;;;;16.20;11.00;;;;;;;21.76;63.67;101617.25;6245549;23;20043;-65
2022/07/21 05:51:49;;;;;;;16.88;10.77;;;;;;;21.67;63.51;101616.28;6246284;23;20088;-65
2022/07/21 05:54:15;;;;;;;16.75;12.13;;;;;;;21.65;63.51;101607.28;6247401;23;20071;-64
2022/07/21 05:56:40;;;;;;;18.58;11.90;;;;;;;21.71;63.55;101611.69;6245386;23;20072;-64
2022/07/21 05:59:05;;;;;;;16.95;11.98;;;;;;;21.76;63.42;101617.25;6246774;23;20000;-65
2022/07/21 06:01:30;;;;;;;17.85;12.00;;;;;;;21.77;63.91;101621.78;6245811;23;20011;-65
2022/07/21 06:03:56;;;;;;;17.73;13.18;;;;;;;21.73;63.50;101625.50;6246728;23;20000;-65
2022/07/21 06:06:23;;;;;;;15.18;12.70;;;;;;;21.77;63.74;101620.91;6243492;23;20098;-64
2022/07/21 06:08:49;;;;;;;22.95;14.30;;;;;;;21.73;63.73;101622.66;6243930;23;20023;-65
2022/07/21 06:11:17;;;;;;;20.02;14.07;;;;;;;21.86;62.92;101627.53;6245407;23;20000;-64
2022/07/21 06:13:42;;;;;;;23.30;15.35;;;;;;;21.78;63.22;101619.78;6245223;23;20054;-64
2022/07/21 06:16:09;;;;;;;17.95;13.55;;;;;;;21.87;63.16;101617.06;6244364;23;20079;-64
2022/07/21 06:18:34;;;;;;;19.48;14.45;;;;;;;21.87;63.17;101617.91;6246864;23;20375;-64
2022/07/21 06:21:00;;;;;;;23.25;14.00;;;;;;;21.94;63.00;101620.34;6246180;23;20004;-65
2022/07/21 06:23:26;;;;;;;18.90;13.70;;;;;;;22.03;62.74;101612.81;6243741;23;20384;-64
2022/07/21 06:25:52;;;;;;;16.38;10.23;;;;;;;22.22;61.56;101618.41;6243348;23;20012;-65
2022/07/21 06:28:18;;;;;;;11.23;8.25;;;;;;;22.41;61.34;101615.47;6245684;23;20104;-65
2022/07/21 06:30:43;;;;;;;24.23;17.70;;;;;;;22.41;61.63;101609.81;6245153;23;20016;-65
2022/07/21 06:33:09;;;;;;;29.75;18.58;;;;;;;22.39;61.82;101615.78;6246970;23;20011;-65
2022/07/21 06:35:35;;;;;;;17.83;13.15;;;;;;;22.54;61.33;101612.63;6245283;23;20088;-65
2022/07/21 06:38:00;;;;;;;16.73;12.82;;;;;;;22.62;61.46;101621.53;6243874;23;20004;-66
2022/07/21 06:40:26;;;;;;;13.77;10.88;;;;;;;22.71;61.03;101619.63;6245865;23;20036;-66
2022/07/21 06:42:51;;;;;;;18.52;13.55;;;;;;;22.65;61.26;101615.25;6246037;23;20004;-66
2022/07/21 06:45:19;;;;;;;21.23;15.65;;;;;;;22.65;61.12;101618.91;6243131;23;20410;-65
2022/07/21 06:47:44;;;;;;;18.67;14.88;;;;;;;22.61;60.66;101623.53;6245589;23;20015;-63
2022/07/21 06:50:10;;;;;;;21.48;14.02;;;;;;;22.69;60.92;101624.78;6245882;23;20444;-63
2022/07/21 06:52:36;;;;;;;17.65;14.38;;;;;;;22.66;60.14;101619.75;6243277;23;20008;-64
2022/07/21 06:55:04;;;;;;;23.63;18.25;;;;;;;22.50;61.05;101633.38;6245250;23;20008;-62
2022/07/21 06:57:30;;;;;;;25.73;18.05;;;;;;;22.52;61.27;101636.75;6242929;23;20012;-63
2022/07/21 06:59:55;;;;;;;21.55;14.60;;;;;;;22.58;60.68;101629.81;6243939;23;20082;-63
2022/07/21 07:02:20;;;;;;;28.83;18.00;;;;;;;22.43;61.53;101645.09;6243999;23;20083;-63
2022/07/21 07:04:45;;;;;;;25.63;17.92;;;;;;;22.39;62.01;101651.72;6243794;23;20042;-63
2022/07/21 07:07:11;;;;;;;27.55;17.52;;;;;;;22.30;61.57;101654.44;6246176;23;20011;-64
2022/07/21 07:09:36;;;;;;;22.90;18.17;;;;;;;22.19;62.30;101653.78;6246510;23;20446;-64
2022/07/21 07:12:05;;;;;;;22.25;17.08;;;;;;;22.25;62.06;101663.88;6245620;23;20015;-64
2022/07/21 07:14:31;;;;;;;25.00;17.95;;;;;;;22.18;62.17;101657.78;6246379;23;20000;-64
2022/07/21 07:16:58;;;;;;;23.75;17.70;;;;;;;22.07;62.49;101653.44;6246280;23;20434;-64
2022/07/21 07:19:24;;;;;;;24.05;17.92;;;;;;;22.04;62.21;101654.88;6244614;23;20050;-64
2022/07/21 07:21:49;;;;;;;25.58;17.05;;;;;;;22.05;60.70;101650.94;6246661;23;20000;-64
2022/07/21 07:24:14;;;;;;;25.60;17.55;;;;;;;21.97;62.70;101645.16;6246383;23;20031;-64
2022/07/21 07:26:39;;;;;;;24.45;17.77;;;;;;;21.96;62.69;101647.13;6245323;23;20003;-63
2022/07/21 07:29:05;;;;;;;22.25;17.52;;;;;;;21.95;62.79;101644.63;6246519;23;20008;-63
2022/07/21 07:31:30;;;;;;;23.55;18.20;;;;;;;21.86;63.56;101640.84;6245787;23;20062;-63
2022/07/21 07:33:58;;;;;;;23.52;15.65;;;;;;;21.96;62.21;101647.13;6245689;23;20032;-64
2022/07/21 07:36:24;;;;;;;28.90;17.35;;;;;;;21.96;62.99;101647.13;6246575;23;20004;-64
2022/07/21 07:38:51;;;;;;;25.38;17.83;;;;;;;21.87;63.47;101650.97;6246600;23;20000;-64
2022/07/21 07:41:17;;;;;;;24.88;17.27;;;;;;;21.73;64.58;101659.41;6245553;23;20014;-63
2022/07/21 07:43:42;;;;;;;24.58;16.90;;;;;;;21.77;65.12;101643.50;6246507;23;20079;-63
2022/07/21 07:46:10;;;;;;;25.20;15.52;;;;;;;21.72;65.79;101658.56;6246129;23;20438;-64
2022/07/21 07:48:36;;;;;;;21.52;14.02;;;;;;;21.75;65.71;101660.78;6244604;22;20018;-63
2022/07/21 07:51:01;;;;;;;21.15;14.93;;;;;;;21.68;66.94;101656.69;6246615;23;20382;-64
2022/07/21 07:53:27;;;;;;;20.52;15.65;;;;;;;21.67;67.68;101655.00;6246669;23;20000;-63
2022/07/21 07:55:53;;;;;;;16.33;12.82;;;;;;;21.64;67.16;101656.44;6245000;23;20008;-64
2022/07/21 07:58:18;;;;;;;16.08;11.43;;;;;;;21.62;67.05;101657.94;6246436;23;20003;-63
2022/07/21 08:00:43;;;;;;;13.65;10.63;;;;;;;21.55;67.24;101661.97;6246060;23;20040;-63
2022/07/21 08:03:08;;;;;;;10.95;9.80;;;;;;;21.61;67.25;101654.25;6245512;23;20006;-63
2022/07/21 08:05:34;;;;;;;11.75;9.35;;;;;;;21.58;66.97;101663.34;6245666;23;20324;-63
2022/07/21 08:07:59;;;;;;;9.55;8.50;;;;;;;21.53;66.81;101664.25;6246167;23;20008;-63
2022/07/21 08:10:24;;;;;;;10.30;9.05;;;;;;;21.47;67.58;101659.00;6244668;23;20001;-63
2022/07/21 08:12:49;;;;;;;8.98;8.02;;;;;;;21.50;67.73;101658.41;6246377;23;20012;-63
2022/07/21 08:15:15;;;;;;;10.70;8.77;;;;;;;21.44;67.95;101660.47;6245456;23;20000;-63
2022/07/21 08:17:41;;;;;;;9.02;8.13;;;;;;;21.49;67.71;101659.53;6246395;23;20004;-63
2022/07/21 08:20:09;;;;;;;8.80;7.78;;;;;;;21.47;67.79;101664.66;6246922;23;20008;-63
2022/07/21 08:22:34;;;;;;;8.10;7.03;;;;;;;21.47;68.00;101659.00;6247018;23;20004;-64
2022/07/21 08:24:59;;;;;;;7.18;6.50;;;;;;;21.38;67.66;101655.19;6247697;23;20031;-64
2022/07/21 08:27:25;;;;;;;8.88;6.82;;;;;;;21.30;68.06;101665.19;6247861;23;20008;-64
2022/07/21 08:29:50;;;;;;;7.00;6.40;;;;;;;21.36;68.24;101663.13;6246653;23;20008;-64
2022/07/21 08:32:17;;;;;;;9.07;7.60;;;;;;;21.27;68.89;101672.28;6248397;23;20289;-63
2022/07/21 08:34:44;;;;;;;7.78;6.35;;;;;;;21.25;68.91;101659.59;6248306;23;20317;-63
2022/07/21 08:37:09;;;;;;;6.80;6.13;;;;;;;21.28;68.79;101659.81;6247463;23;20088;-64
2022/07/21 08:39:35;;;;;;;7.50;6.43;;;;;;;21.29;69.33;101663.47;6247910;23;20020;-64
2022/07/21 08:42:01;;;;;;;8.77;7.25;;;;;;;21.33;69.61;101667.41;6248149;23;20075;-64
2022/07/21 08:44:26;;;;;;;8.13;6.53;;;;;;;21.37;68.81;101662.00;6246323;23;20000;-63
2022/07/21 08:46:52;;;;;;;8.50;7.25;;;;;;;21.30;68.85;101671.66;6247175;23;20351;-64
2022/07/21 08:49:21;;;;;;;7.32;6.63;;;;;;;21.33;69.18;101673.06;6246775;22;20058;-63
2022/07/21 08:51:47;;;;;;;8.02;7.28;;;;;;;21.27;70.01;101668.63;6247082;23;20332;-63
2022/07/21 08:54:13;;;;;;;9.52;7.90;;;;;;;21.28;70.00;101668.28;6246433;23;20087;-63
2022/07/21 08:56:38;;;;;;;11.45;7.97;;;;;;;21.30;69.56;101660.38;6247006;23;20079;-63
2022/07/21 08:59:05;;;;;;;9.65;7.63;;;;;;;21.33;69.40;101665.41;6246919;23;20367;-64
2022/07/21 09:01:33;;;;;;;9.20;7.85;;;;;;;21.26;70.46;101666.91;6247635;23;20004;-63
2022/07/21 09:04:23;;;;;;;9.00;8.18;;;;;;;21.22;69.40;101668.66;6247782;23;20011;-63
2022/07/21 09:06:54;;;;;;;9.20;8.30;;;;;;;21.18;70.48;101676.06;6247784;23;20004;-63
2022/07/21 09:09:21;;;;;;;9.05;8.15;;;;;;;21.12;70.92;101672.50;6247788;23;19996;-63
2022/07/21 09:11:49;;;;;;;8.95;8.05;;;;;;;21.15;70.91;101671.06;6246074;23;20298;-63
2022/07/21 09:14:18;;;;;;;9.70;8.77;;;;;;;21.17;71.25;101672.41;6247743;23;20062;-63
2022/07/21 09:16:48;;;;;;;9.10;8.25;;;;;;;21.21;70.87;101673.47;6247434;23;20132;-63
2022/07/21 09:19:20;;;;;;;8.77;7.70;;;;;;;21.28;70.93;101670.28;6246894;23;20004;-63
2022/07/21 09:21:46;;;;;;;8.47;7.67;;;;;;;21.27;71.43;101677.91;6247731;23;20011;-63
2022/07/21 09:24:16;;;;;;;9.20;7.38;;;;;;;21.35;70.89;101669.94;6247581;23;20004;-64
2022/07/21 09:27:03;;;;;;;8.13;7.32;;;;;;;21.33;70.19;101679.53;6245844;23;20012;-63
2022/07/21 09:29:38;;;;;;;7.13;6.50;;;;;;;21.32;70.35;101686.34;6247748;23;20004;-64
2022/07/21 09:32:27;;;;;;;9.38;7.50;;;;;;;21.28;70.47;101684.41;6246255;23;20091;-63
2022/07/21 09:35:05;;;;;;;7.85;7.15;;;;;;;21.31;70.45;101692.28;6247345;23;20027;-63
2022/07/21 09:37:32;;;;;;;7.40;6.70;;;;;;;21.27;70.81;101686.41;6247700;23;20041;-63
2022/07/21 09:40:00;;;;;;;7.07;6.47;;;;;;;21.28;70.92;101690.88;6246139;23;20000;-63
2022/07/21 09:42:31;;;;;;;7.85;7.05;;;;;;;21.24;71.13;101692.66;6247452;23;20023;-63
2022/07/21 09:44:59;;;;;;;5.88;5.38;;;;;;;21.28;70.57;101702.19;6246947;23;20015;-66
2022/07/21 09:47:28;;;;;;;5.60;5.10;;;;;;;21.27;70.14;101696.84;6246602;23;20008;-63
2022/07/21 09:49:55;;;;;;;5.50;4.53;;;;;;;21.28;70.10;101699.34;6247111;23;20008;-63
2022/07/21 09:52:22;;;;;;;5.30;4.18;;;;;;;21.21;70.04;101698.06;6246936;23;20359;-65
2022/07/21 09:54:47;;;;;;;4.70;4.00;;;;;;;21.21;70.14;101698.88;6245976;23;20087;-63
2022/07/21 09:57:18;;;;;;;6.18;4.20;;;;;;;21.14;70.20;101692.78;6247576;23;20023;-64
2022/07/21 09:59:51;;;;;;;4.75;3.97;;;;;;;21.12;70.11;101703.56;6246931;23;20000;-63
2022/07/21 10:02:23;;;;;;;4.10;3.67;;;;;;;21.01;70.24;101710.47;6246573;23;20024;-63
2022/07/21 10:04:55;;;;;;;6.55;3.75;;;;;;;21.06;70.59;101710.41;6246897;23;20416;-63
2022/07/21 10:07:21;;;;;;;;;;;;;;;21.27;68.10;101708.16;6246521;23;20014;-62
2022/07/21 10:09:47;;;;;;;6.72;4.30;;;;;;;21.00;70.09;101714.44;6246318;23;19908;-63
2022/07/21 10:12:15;;;;;;;6.20;4.40;;;;;;;20.97;69.94;101726.34;6246951;23;20004;-63
2022/07/21 10:14:40;;;;;;;5.22;4.72;;;;;;;21.02;69.72;101718.63;6245855;23;20050;-63
2022/07/21 10:17:06;;;;;;;6.15;5.55;;;;;;;20.93;70.47;101719.63;6246131;23;20008;-63
2022/07/21 10:19:39;;;;;;;5.43;4.93;;;;;;;20.93;70.40;101722.44;6246575;23;20328;-63
2022/07/21 10:22:20;;;;;;;7.95;5.50;;;;;;;20.91;70.31;101734.03;6246461;23;20004;-63
2022/07/21 10:24:46;;;;;;;6.10;5.50;;;;;;;20.97;70.79;101724.34;6247336;23;20000;-64
2022/07/21 10:27:13;;;;;;;6.03;5.43;;;;;;;21.03;70.88;101727.97;6247172;23;20006;-63
2022/07/21 10:29:47;;;;;;;5.75;5.13;;;;;;;21.04;70.50;101738.94;6246235;23;20015;-63
2022/07/21 10:32:14;;;;;;;6.45;5.43;;;;;;;21.10;70.08;101739.69;6246325;23;20417;-63
2022/07/21 10:34:39;;;;;;;5.13;4.63;;;;;;;21.13;70.50;101736.28;6246712;23;20050;-63
2022/07/21 10:37:04;;;;;;;8.73;5.65;;;;;;;21.08;70.53;101745.66;6245989;23;20004;-63
2022/07/21 10:39:32;;;;;;;7.40;5.95;;;;;;;21.13;70.55;101741.91;6246987;23;20328;-63
2022/07/21 10:42:00;;;;;;;6.90;6.20;;;;;;;21.04;71.39;101743.75;6246994;23;20000;-63
2022/07/21 10:44:29;;;;;;;8.70;5.85;;;;;;;21.03;70.65;101747.72;6245129;23;20028;-63
2022/07/21 10:47:16;;;;;;;6.75;6.00;;;;;;;21.13;69.74;101746.72;6246499;23;20023;-63
2022/07/21 10:49:55;;;;;;;7.60;6.15;;;;;;;21.10;69.73;101751.00;6245968;23;20016;-63
2022/07/21 10:52:35;;;;;;;6.47;5.72;;;;;;;21.09;69.69;101749.31;6246076;23;20074;-63
2022/07/21 10:55:09;;;;;;;6.60;5.88;;;;;;;21.05;69.52;101751.06;6246487;23;20008;-63
2022/07/21 10:57:36;;;;;;;8.07;5.85;;;;;;;21.10;69.51;101753.81;6245538;23;20384;-63
2022/07/21 11:00:21;;;;;;;8.30;6.22;;;;;;;21.08;69.42;101753.28;6246604;23;20008;-63
2022/07/21 11:03:02;;;;;;;11.75;6.32;;;;;;;21.04;69.66;101750.22;6246580;23;20432;-63
2022/07/21 11:05:33;;;;;;;7.15;5.75;;;;;;;20.98;69.09;101757.06;6245308;23;20011;-63
2022/07/21 11:08:16;;;;;;;7.70;5.82;;;;;;;21.01;68.89;101758.47;6246399;23;20365;-63
2022/07/21 11:10:44;;;;;;;8.05;5.72;;;;;;;20.90;69.30;101756.91;6245990;23;20000;-63
2022/07/21 11:13:10;;;;;;;10.02;6.22;;;;;;;20.90;69.88;101754.91;6245793;23;20005;-63
2022/07/21 11:16:08;;;;;;;9.57;6.68;;;;;;;20.97;69.08;101768.66;6246173;23;20034;-63
2022/07/21 11:18:33;;;;;;;6.93;5.53;;;;;;;20.91;69.51;101762.25;6244735;23;20030;-63